createdAt,value
2017-10-09T00:02:16.750Z,93.60
2017-10-09T00:04:45.332Z,93.30
2017-10-09T00:07:12.908Z,93.30
2017-10-09T00:09:40.566Z,93.30
2017-10-09T00:12:08.179Z,93.50
2017-10-09T00:14:35.743Z,93.60
2017-10-09T00:17:03.319Z,93.70
2017-10-09T00:19:31.695Z,93.90
2017-10-09T00:22:00.030Z,94.10
2017-10-09T00:24:27.589Z,94.10
2017-10-09T00:26:55.211Z,94.50
2017-10-09T00:29:22.777Z,94.10
2017-10-09T00:31:50.851Z,94.10
2017-10-09T00:34:19.317Z,94.30
2017-10-09T00:36:47.650Z,94.20
2017-10-09T00:39:15.218Z,94.20
2017-10-09T00:41:43.786Z,94.00
2017-10-09T00:44:12.115Z,94.00
2017-10-09T00:46:39.678Z,94.00
2017-10-09T00:49:07.290Z,94.10
2017-10-09T00:51:34.859Z,94.00
2017-10-09T00:54:02.418Z,93.80
2017-10-09T00:56:30.794Z,94.00
2017-10-09T00:58:58.364Z,94.00
2017-10-09T01:01:25.936Z,93.90
2017-10-09T01:03:53.739Z,94.00
2017-10-09T01:06:21.299Z,93.90
2017-10-09T01:08:48.859Z,93.80
2017-10-09T01:11:16.479Z,93.80
2017-10-09T01:13:44.043Z,93.90
2017-10-09T01:16:11.619Z,94.00
2017-10-09T01:18:39.383Z,94.00
2017-10-09T01:21:07.711Z,94.20
2017-10-09T01:23:35.276Z,94.20
2017-10-09T01:26:02.900Z,94.30
2017-10-09T01:28:30.477Z,94.40
2017-10-09T01:30:58.804Z,94.70
2017-10-09T01:33:26.555Z,94.70
2017-10-09T01:35:54.117Z,94.70
2017-10-09T01:38:21.682Z,94.70
2017-10-09T01:40:50.070Z,94.70
2017-10-09T01:43:17.644Z,94.70
2017-10-09T01:45:45.210Z,94.60
2017-10-09T01:48:13.594Z,94.70
2017-10-09T01:50:41.929Z,94.70
2017-10-09T01:53:10.130Z,94.70
2017-10-09T01:55:37.742Z,94.60
2017-10-09T01:58:05.305Z,94.90
2017-10-09T02:00:32.870Z,94.60
2017-10-09T02:03:00.479Z,94.60
2017-10-09T02:05:28.818Z,94.70
2017-10-09T02:07:56.384Z,94.70
2017-10-09T02:10:25.471Z,94.50
2017-10-09T02:12:53.808Z,94.60
2017-10-09T02:15:21.367Z,94.60
2017-10-09T02:17:49.948Z,94.60
2017-10-09T02:20:18.289Z,94.70
2017-10-09T02:22:45.852Z,94.70
2017-10-09T02:25:14.406Z,94.60
2017-10-09T02:27:42.733Z,94.70
2017-10-09T02:30:10.295Z,94.70
2017-10-09T02:32:38.068Z,94.70
2017-10-09T02:35:06.395Z,94.70
2017-10-09T02:37:33.953Z,94.90
2017-10-09T02:40:01.567Z,94.80
2017-10-09T02:42:29.162Z,94.90
2017-10-09T02:44:57.494Z,95.00
2017-10-09T02:47:25.110Z,94.90
2017-10-09T02:49:52.674Z,95.00
2017-10-09T02:52:20.242Z,95.00
2017-10-09T02:54:47.894Z,94.90
2017-10-09T02:57:16.230Z,94.90
2017-10-09T02:59:43.792Z,94.90
2017-10-09T03:02:11.506Z,94.90
2017-10-09T03:04:39.077Z,95.00
2017-10-09T03:07:06.635Z,95.00
2017-10-09T03:09:35.163Z,95.10
2017-10-09T03:12:02.735Z,95.10
2017-10-09T03:14:30.306Z,95.10
2017-10-09T03:16:57.914Z,95.20
2017-10-09T03:19:25.484Z,95.20
2017-10-09T03:21:53.807Z,95.30
2017-10-09T03:24:22.312Z,95.30
2017-10-09T03:26:56.357Z,95.40
2017-10-09T03:29:41.643Z,95.40
2017-10-09T03:32:09.211Z,95.40
2017-10-09T03:34:36.774Z,95.40
2017-10-09T03:37:04.379Z,95.40
2017-10-09T03:39:32.707Z,95.40
2017-10-09T03:42:03.699Z,95.40
2017-10-09T03:44:33.816Z,95.50
2017-10-09T03:47:02.311Z,95.50
2017-10-09T03:49:29.904Z,95.50
2017-10-09T03:51:57.528Z,95.60
2017-10-09T03:54:25.867Z,95.60
2017-10-09T03:56:53.433Z,95.60
2017-10-09T03:59:21.821Z,95.70
2017-10-09T04:01:49.392Z,95.70
2017-10-09T04:04:16.960Z,95.70
2017-10-09T04:06:44.662Z,95.60
2017-10-09T04:09:12.220Z,95.70
2017-10-09T04:11:39.795Z,95.70
2017-10-09T04:14:07.503Z,95.60
2017-10-09T04:16:35.068Z,95.60
2017-10-09T04:19:02.632Z,95.70
2017-10-09T04:21:30.259Z,95.70
2017-10-09T04:23:57.820Z,95.70
2017-10-09T04:26:25.445Z,95.70
2017-10-09T04:28:53.245Z,95.80
2017-10-09T04:31:21.581Z,95.80
2017-10-09T04:33:49.151Z,95.80
2017-10-09T04:36:17.538Z,95.80
2017-10-09T04:38:45.087Z,95.80
2017-10-09T04:41:12.655Z,95.80
2017-10-09T04:43:40.502Z,95.70
2017-10-09T04:46:08.072Z,95.70
2017-10-09T04:48:35.645Z,95.70
2017-10-09T04:51:03.271Z,95.90
2017-10-09T04:53:31.651Z,95.90
2017-10-09T04:55:59.226Z,95.90
2017-10-09T04:58:26.835Z,96.00
2017-10-09T05:00:55.177Z,96.00
2017-10-09T05:03:22.743Z,96.00
2017-10-09T05:05:50.436Z,96.00
2017-10-09T05:08:18.009Z,96.10
2017-10-09T05:10:45.836Z,96.10
2017-10-09T05:13:13.459Z,96.30
2017-10-09T05:15:41.381Z,96.40
2017-10-09T05:18:08.955Z,96.30
2017-10-09T05:20:36.572Z,96.10
2017-10-09T05:23:04.144Z,96.00
2017-10-09T05:25:31.711Z,96.10
2017-10-09T05:27:59.332Z,96.00
2017-10-09T05:30:28.414Z,96.10
2017-10-09T05:32:55.970Z,96.10
2017-10-09T05:35:23.598Z,96.10
2017-10-09T05:37:51.158Z,96.20
2017-10-09T05:40:18.803Z,96.20
2017-10-09T05:42:46.438Z,96.10
2017-10-09T05:45:14.013Z,96.00
2017-10-09T05:47:41.592Z,96.00
2017-10-09T05:50:09.215Z,96.00
2017-10-09T05:52:37.553Z,95.80
2017-10-09T05:55:05.208Z,95.80
2017-10-09T05:57:32.832Z,95.70
2017-10-09T06:00:00.422Z,95.70
2017-10-09T06:02:28.754Z,95.70
2017-10-09T06:04:56.376Z,95.70
2017-10-09T06:07:23.942Z,95.60
2017-10-09T06:09:51.694Z,95.50
2017-10-09T06:12:19.300Z,95.50
2017-10-09T06:14:46.868Z,95.50
2017-10-09T06:17:14.432Z,95.60
2017-10-09T06:19:42.248Z,95.50
2017-10-09T06:22:09.827Z,95.60
2017-10-09T06:24:37.391Z,95.30
2017-10-09T06:27:05.015Z,95.30
2017-10-09T06:29:32.632Z,95.30
2017-10-09T06:32:00.214Z,95.60
2017-10-09T06:34:28.595Z,95.20
2017-10-09T06:36:56.158Z,95.10
2017-10-09T06:39:23.827Z,95.00
2017-10-09T06:41:51.530Z,95.00
2017-10-09T06:44:19.121Z,94.80
2017-10-09T06:46:46.699Z,94.80
2017-10-09T06:49:15.084Z,94.60
2017-10-09T06:51:42.744Z,94.60
2017-10-09T06:54:11.093Z,94.40
2017-10-09T06:56:38.716Z,94.40
2017-10-09T06:59:07.136Z,94.10
2017-10-09T07:01:34.702Z,94.10
2017-10-09T07:04:02.310Z,94.00
2017-10-09T07:06:29.890Z,94.00
2017-10-09T07:08:57.635Z,93.90
2017-10-09T07:11:26.226Z,93.60
2017-10-09T07:13:54.572Z,93.00
2017-10-09T07:16:22.139Z,93.00
2017-10-09T07:18:50.519Z,93.00
2017-10-09T07:21:18.088Z,93.40
2017-10-09T07:23:45.650Z,93.50
2017-10-09T07:26:13.351Z,93.40
2017-10-09T07:28:40.918Z,93.10
2017-10-09T07:31:08.487Z,93.20
2017-10-09T07:33:36.128Z,93.20
2017-10-09T07:36:03.706Z,93.30
2017-10-09T07:38:32.039Z,93.30
2017-10-09T07:40:59.775Z,93.30
2017-10-09T07:43:27.346Z,93.30
2017-10-09T07:45:55.691Z,92.90
2017-10-09T07:48:23.327Z,92.90
2017-10-09T07:50:50.898Z,92.80
2017-10-09T07:53:18.467Z,92.80
2017-10-09T07:55:46.111Z,92.60
2017-10-09T07:58:13.691Z,92.40
2017-10-09T08:00:42.143Z,91.00
2017-10-09T08:03:09.960Z,90.90
2017-10-09T08:05:38.310Z,90.40
2017-10-09T08:08:06.648Z,90.40
2017-10-09T08:10:34.258Z,90.40
2017-10-09T08:13:01.832Z,90.30
2017-10-09T08:15:29.407Z,90.30
2017-10-09T08:17:57.947Z,90.50
2017-10-09T08:20:25.527Z,90.50
2017-10-09T08:22:53.130Z,90.50
2017-10-09T08:25:21.522Z,90.40
2017-10-09T08:27:49.098Z,90.40
2017-10-09T08:30:16.668Z,90.40
2017-10-09T08:32:44.391Z,90.10
2017-10-09T08:35:11.972Z,90.00
2017-10-09T08:37:40.322Z,89.20
2017-10-09T08:40:08.716Z,89.20
2017-10-09T08:42:36.295Z,89.20
2017-10-09T08:45:03.880Z,89.60
2017-10-09T08:47:32.671Z,88.10
2017-10-09T08:50:00.259Z,88.00
2017-10-09T08:52:27.837Z,88.10
2017-10-09T08:54:56.240Z,88.90
2017-10-09T08:57:23.820Z,88.60
2017-10-09T08:59:51.399Z,87.50
2017-10-09T09:02:19.787Z,88.40
2017-10-09T09:04:47.370Z,88.30
2017-10-09T09:07:14.946Z,88.60
2017-10-09T09:09:43.994Z,89.50
2017-10-09T09:12:11.580Z,89.40
2017-10-09T09:14:39.919Z,88.60
2017-10-09T09:17:08.323Z,88.20
2017-10-09T09:19:35.899Z,88.10
2017-10-09T09:22:03.471Z,88.00
2017-10-09T09:24:31.090Z,87.90
2017-10-09T09:26:58.662Z,87.40
2017-10-09T09:29:27.011Z,85.80
2017-10-09T09:31:54.743Z,85.80
2017-10-09T09:34:22.327Z,83.60
2017-10-09T09:36:50.662Z,79.10
2017-10-09T09:39:19.774Z,78.90
2017-10-09T09:41:48.115Z,78.60
2017-10-09T09:44:16.575Z,76.80
2017-10-09T09:46:44.960Z,75.90
2017-10-09T09:49:13.302Z,75.50
2017-10-09T09:51:40.872Z,75.40
2017-10-09T09:54:09.262Z,75.60
2017-10-09T09:56:36.836Z,75.60
2017-10-09T09:59:04.421Z,75.10
2017-10-09T10:01:32.803Z,73.10
2017-10-09T10:04:00.371Z,73.10
2017-10-09T10:06:27.951Z,72.10
2017-10-09T10:08:55.721Z,72.90
2017-10-09T10:11:24.064Z,73.70
2017-10-09T10:13:52.401Z,74.80
2017-10-09T10:16:20.028Z,75.40
2017-10-09T10:18:47.640Z,74.80
2017-10-09T10:21:15.219Z,75.00
2017-10-09T10:23:42.955Z,74.40
2017-10-09T10:26:10.627Z,73.80
2017-10-09T10:28:38.204Z,72.80
2017-10-09T10:31:06.603Z,71.80
2017-10-09T10:33:34.239Z,71.80
2017-10-09T10:36:01.856Z,69.60
2017-10-09T10:38:30.410Z,70.70
2017-10-09T10:40:58.003Z,70.70
2017-10-09T10:43:25.627Z,72.60
2017-10-09T10:45:53.480Z,71.10
2017-10-09T10:48:21.074Z,69.00
2017-10-09T10:50:48.714Z,68.20
2017-10-09T10:53:16.389Z,66.30
2017-10-09T10:55:44.739Z,66.70
2017-10-09T10:58:12.323Z,65.90
2017-10-09T11:00:40.122Z,63.30
2017-10-09T11:03:07.702Z,63.50
2017-10-09T11:05:36.043Z,63.90
2017-10-09T11:08:03.681Z,63.90
2017-10-09T11:10:31.255Z,64.90
2017-10-09T11:12:59.606Z,66.50
2017-10-09T11:15:28.211Z,67.00
2017-10-09T11:17:55.799Z,67.00
2017-10-09T11:20:23.366Z,67.50
2017-10-09T11:22:51.758Z,66.00
2017-10-09T11:25:19.326Z,65.90
2017-10-09T11:27:46.928Z,63.80
2017-10-09T11:30:14.567Z,64.00
2017-10-09T11:32:42.941Z,65.90
2017-10-09T11:35:10.529Z,65.90
2017-10-09T11:37:38.331Z,66.60
2017-10-09T11:40:05.908Z,64.60
2017-10-09T11:42:33.483Z,66.90
2017-10-09T11:45:02.866Z,67.30
2017-10-09T11:47:30.433Z,67.20
2017-10-09T11:49:58.786Z,67.30
2017-10-09T11:52:26.432Z,67.20
2017-10-09T11:54:54.000Z,68.70
2017-10-09T11:57:21.582Z,69.00
2017-10-09T11:59:49.228Z,69.30
2017-10-09T12:02:16.805Z,70.20
2017-10-09T12:04:44.383Z,70.80
2017-10-09T12:07:12.000Z,70.70
2017-10-09T12:09:39.563Z,71.80
2017-10-09T12:12:07.897Z,72.20
2017-10-09T12:14:38.386Z,72.30
2017-10-09T12:17:06.371Z,74.20
2017-10-09T12:19:33.951Z,75.00
2017-10-09T12:22:01.683Z,74.20
2017-10-09T12:24:29.294Z,72.70
2017-10-09T12:26:56.931Z,72.50
2017-10-09T12:29:24.555Z,72.60
2017-10-09T12:31:52.155Z,72.90
2017-10-09T12:34:19.769Z,72.90
2017-10-09T12:36:49.411Z,74.10
2017-10-09T12:39:16.988Z,74.20
2017-10-09T12:41:44.560Z,74.10
2017-10-09T12:44:12.193Z,74.30
2017-10-09T12:46:39.780Z,75.90
2017-10-09T12:49:07.362Z,77.50
2017-10-09T12:51:35.299Z,77.90
2017-10-09T12:54:02.870Z,76.30
2017-10-09T12:56:30.443Z,76.60
2017-10-09T12:58:58.829Z,77.00
2017-10-09T13:01:26.408Z,77.00
2017-10-09T13:03:53.991Z,77.30
2017-10-09T13:06:22.618Z,77.30
2017-10-09T13:08:50.477Z,77.30
2017-10-09T13:11:18.226Z,78.20
2017-10-09T13:13:46.635Z,78.00
2017-10-09T13:16:15.260Z,78.70
2017-10-09T13:18:43.686Z,78.50
2017-10-09T13:21:11.327Z,78.50
2017-10-09T13:23:38.923Z,78.90
2017-10-09T13:26:06.756Z,79.40
2017-10-09T13:28:35.490Z,79.40
2017-10-09T13:31:03.079Z,79.40
2017-10-09T13:33:30.647Z,79.50
2017-10-09T13:35:59.502Z,79.80
2017-10-09T13:38:28.097Z,80.20
2017-10-09T13:40:55.706Z,80.20
2017-10-09T13:43:23.333Z,80.20
2017-10-09T13:45:51.097Z,80.90
2017-10-09T13:48:18.674Z,82.00
2017-10-09T13:50:47.086Z,82.70
2017-10-09T13:53:14.654Z,82.70
2017-10-09T13:55:42.222Z,83.10
2017-10-09T13:58:10.602Z,84.10
2017-10-09T14:00:40.159Z,84.20
2017-10-09T14:03:07.748Z,84.20
2017-10-09T14:05:35.379Z,84.10
2017-10-09T14:08:02.975Z,84.60
2017-10-09T14:10:30.547Z,84.80
2017-10-09T14:12:58.320Z,85.20
2017-10-09T14:15:25.895Z,84.60
2017-10-09T14:17:53.474Z,84.90
2017-10-09T14:20:21.090Z,85.30
2017-10-09T14:22:48.656Z,85.70
2017-10-09T14:25:16.236Z,86.30
2017-10-09T14:27:43.876Z,86.80
2017-10-09T14:30:12.232Z,89.20
2017-10-09T14:40:09.325Z,90.30
2017-10-09T14:42:36.955Z,90.30
2017-10-09T14:45:04.529Z,90.50
2017-10-09T14:47:32.120Z,90.40
2017-10-09T14:49:59.749Z,90.40
2017-10-09T14:52:28.323Z,90.50
2017-10-09T14:54:55.905Z,90.40
2017-10-09T14:57:23.642Z,90.20
2017-10-09T14:59:51.243Z,90.10
2017-10-09T15:02:19.595Z,90.10
2017-10-09T15:04:48.335Z,90.10
2017-10-09T15:07:15.927Z,90.10
2017-10-09T15:09:43.551Z,90.30
2017-10-09T15:12:11.193Z,90.50
2017-10-09T15:14:38.771Z,90.50
2017-10-09T15:17:06.347Z,90.60
2017-10-09T15:19:34.437Z,90.50
2017-10-09T15:22:02.025Z,90.50
2017-10-09T15:24:29.608Z,90.60
2017-10-09T15:26:57.361Z,90.70
2017-10-09T15:29:25.716Z,90.90
2017-10-09T15:31:53.295Z,90.70
2017-10-09T15:34:21.783Z,90.70
2017-10-09T15:36:49.374Z,90.70
2017-10-09T15:39:16.982Z,90.80
2017-10-09T15:41:44.614Z,90.80
2017-10-09T15:44:12.196Z,90.70
2017-10-09T15:46:39.780Z,90.80
2017-10-09T15:49:08.363Z,90.90
2017-10-09T15:51:35.936Z,90.90
2017-10-09T15:54:03.522Z,91.10
2017-10-09T15:56:31.162Z,91.00
2017-10-09T15:58:58.915Z,91.10
2017-10-09T16:01:26.504Z,91.10
2017-10-09T16:03:54.232Z,91.40
2017-10-09T16:06:22.624Z,91.30
2017-10-09T16:08:50.326Z,91.30
2017-10-09T16:11:18.938Z,91.50
2017-10-09T16:13:46.517Z,91.50
2017-10-09T16:16:14.208Z,91.40
2017-10-09T16:18:42.690Z,91.50
2017-10-09T16:21:10.372Z,91.50
2017-10-09T16:23:37.972Z,91.80
2017-10-09T16:26:05.595Z,91.90
2017-10-09T16:28:33.942Z,92.10
2017-10-09T16:31:01.519Z,92.10
2017-10-09T16:33:29.179Z,92.00
2017-10-09T16:35:56.765Z,91.90
2017-10-09T16:38:24.407Z,92.00
2017-10-09T16:40:52.852Z,92.20
2017-10-09T16:43:20.440Z,92.20
2017-10-09T16:45:48.784Z,92.40
2017-10-09T16:48:17.199Z,92.50
2017-10-09T16:50:44.819Z,92.40
2017-10-09T16:53:13.266Z,92.70
2017-10-09T16:55:40.888Z,92.70
2017-10-09T16:58:08.487Z,92.70
2017-10-09T17:00:36.075Z,92.70
2017-10-09T17:03:03.776Z,92.80
2017-10-09T17:05:31.352Z,92.90
2017-10-09T17:07:58.941Z,92.90
2017-10-09T17:10:27.333Z,92.90
2017-10-09T17:12:54.906Z,92.90
2017-10-09T17:15:22.503Z,93.00
2017-10-09T17:17:51.481Z,93.00
2017-10-09T17:20:19.169Z,93.00
2017-10-09T17:22:46.755Z,93.10
2017-10-09T17:25:15.279Z,93.10
2017-10-09T17:27:45.099Z,93.10
2017-10-09T17:30:12.715Z,93.10
2017-10-09T17:32:40.348Z,93.10
2017-10-09T17:35:07.935Z,93.10
2017-10-09T17:37:35.555Z,93.00
2017-10-09T17:40:03.192Z,93.10
2017-10-09T17:42:32.661Z,93.20
2017-10-09T17:45:01.362Z,93.30
2017-10-09T17:47:30.228Z,93.20
2017-10-09T17:49:57.990Z,93.20
2017-10-09T17:52:25.561Z,93.10
2017-10-09T17:54:53.248Z,93.20
2017-10-09T17:57:23.024Z,93.30
2017-10-09T17:59:51.414Z,93.50
2017-10-09T18:02:19.246Z,93.50
2017-10-09T18:04:46.920Z,93.60
2017-10-09T18:07:15.532Z,93.70
2017-10-09T18:09:44.176Z,93.90
2017-10-09T18:12:12.342Z,93.80
2017-10-09T18:14:41.782Z,93.80
2017-10-09T18:17:09.983Z,93.90
2017-10-09T18:19:37.658Z,93.90
2017-10-09T18:22:06.548Z,93.90
2017-10-09T18:24:34.540Z,93.90
2017-10-09T18:27:02.765Z,94.00
2017-10-09T18:29:31.725Z,94.20
2017-10-09T18:32:00.219Z,94.20
2017-10-09T18:34:28.245Z,94.20
2017-10-09T18:36:55.953Z,94.20
2017-10-09T18:39:24.214Z,94.50
2017-10-09T18:41:54.401Z,94.60
2017-10-09T18:44:22.644Z,94.50
2017-10-09T18:46:51.619Z,94.30
2017-10-09T18:49:20.504Z,94.40
2017-10-09T18:51:49.918Z,94.60
2017-10-09T18:54:17.868Z,94.50
2017-10-09T18:56:45.460Z,94.40
2017-10-09T18:59:14.406Z,94.40
2017-10-09T19:01:43.361Z,94.50
2017-10-09T19:04:14.737Z,94.60
2017-10-09T19:06:44.654Z,94.60
2017-10-09T19:09:13.868Z,94.60
2017-10-09T19:11:41.979Z,94.50
2017-10-09T19:14:10.653Z,94.40
2017-10-09T19:16:39.588Z,94.30
2017-10-09T19:19:07.905Z,94.30
2017-10-09T19:21:35.946Z,94.40
2017-10-09T19:24:03.658Z,94.30
2017-10-09T19:26:33.307Z,94.40
2017-10-09T19:29:01.633Z,94.50
2017-10-09T19:31:30.861Z,94.50
2017-10-09T19:34:00.081Z,94.50
2017-10-09T19:36:28.493Z,94.50
2017-10-09T19:38:56.681Z,94.50
2017-10-09T19:41:24.363Z,94.60
2017-10-09T19:43:54.793Z,94.70
2017-10-09T19:46:24.068Z,94.70
2017-10-09T19:48:53.709Z,94.70
2017-10-09T19:51:21.612Z,95.00
2017-10-09T19:53:53.844Z,94.60
2017-10-09T19:56:22.142Z,94.70
2017-10-09T19:58:52.516Z,94.70
2017-10-09T20:01:23.578Z,94.70
2017-10-09T20:03:52.803Z,94.70
2017-10-09T20:06:25.187Z,94.80
2017-10-09T20:08:59.049Z,94.80
2017-10-09T20:11:27.256Z,94.90
2017-10-09T20:13:55.292Z,94.80
2017-10-09T20:16:23.680Z,94.90
2017-10-09T20:18:51.316Z,95.20
2017-10-09T20:21:18.913Z,94.80
2017-10-09T20:23:47.132Z,94.80
2017-10-09T20:26:14.919Z,94.70
2017-10-09T20:28:42.529Z,94.70
2017-10-09T20:31:10.145Z,94.70
2017-10-09T20:33:37.840Z,94.80
2017-10-09T20:36:05.442Z,94.80
2017-10-09T20:38:33.045Z,94.90
2017-10-09T20:41:00.789Z,94.90
2017-10-09T20:43:28.379Z,94.90
2017-10-09T20:45:56.756Z,94.90
2017-10-09T20:48:24.399Z,94.90
2017-10-09T20:50:52.015Z,94.90
2017-10-09T20:53:20.394Z,94.90
2017-10-09T20:55:48.041Z,94.90
2017-10-09T20:58:15.664Z,94.90
2017-10-09T21:00:43.259Z,94.90
2017-10-09T21:03:11.942Z,94.90
2017-10-09T21:05:39.529Z,94.90
2017-10-09T21:08:07.899Z,94.90
2017-10-09T21:10:36.322Z,95.00
2017-10-09T21:13:04.039Z,95.00
2017-10-09T21:15:32.011Z,95.00
2017-10-09T21:17:59.641Z,95.00
2017-10-09T21:20:27.249Z,95.00
2017-10-09T21:22:55.608Z,95.00
2017-10-09T21:25:24.242Z,95.00
2017-10-09T21:27:51.833Z,94.90
2017-10-09T21:30:19.456Z,95.10
2017-10-09T21:32:50.033Z,94.90
2017-10-09T21:35:17.652Z,94.90
2017-10-09T21:37:45.248Z,94.90
2017-10-09T21:40:12.892Z,94.90
2017-10-09T21:42:40.516Z,94.90
2017-10-09T21:45:09.724Z,95.00
2017-10-09T21:47:37.371Z,95.00
2017-10-09T21:50:05.734Z,95.00
2017-10-09T21:52:33.339Z,95.00
2017-10-09T21:55:01.169Z,94.90
2017-10-09T21:57:28.790Z,95.00
2017-10-09T21:59:56.502Z,95.10
2017-10-09T22:02:26.262Z,95.50
2017-10-09T22:04:53.879Z,95.10
2017-10-09T22:07:21.592Z,95.20
2017-10-09T22:09:49.392Z,95.20
2017-10-09T22:12:18.766Z,95.20
2017-10-09T22:14:46.355Z,95.10
2017-10-09T22:17:15.500Z,95.20
2017-10-09T22:19:43.188Z,95.20
2017-10-09T22:22:14.627Z,95.20
2017-10-09T22:24:42.566Z,95.20
2017-10-09T22:27:12.458Z,95.20
2017-10-09T22:29:40.160Z,95.20
2017-10-09T22:32:10.542Z,95.20
2017-10-09T22:34:38.369Z,95.20
2017-10-09T22:37:11.204Z,95.20
2017-10-09T22:39:39.167Z,95.20
2017-10-09T22:42:09.227Z,95.30
2017-10-09T22:44:37.007Z,95.30
2017-10-09T22:47:04.687Z,95.20
2017-10-09T22:49:32.404Z,95.30
2017-10-09T22:52:00.008Z,95.30
2017-10-09T22:54:39.594Z,95.30
2017-10-09T22:57:11.047Z,95.70
2017-10-09T22:59:38.948Z,95.40
2017-10-09T23:02:08.977Z,95.40
2017-10-09T23:04:36.852Z,95.70
2017-10-09T23:07:04.611Z,95.30
2017-10-09T23:09:32.360Z,95.20
2017-10-09T23:12:00.864Z,95.20
2017-10-09T23:14:29.276Z,95.20
2017-10-09T23:16:56.881Z,95.20
2017-10-09T23:19:24.499Z,95.20
2017-10-09T23:25:03.857Z,95.20
2017-10-09T23:27:45.354Z,95.20
2017-10-09T23:33:05.143Z,95.20
2017-10-09T23:38:24.671Z,95.20
2017-10-09T23:40:52.240Z,95.20
2017-10-09T23:43:19.811Z,95.30
2017-10-09T23:45:47.429Z,95.30
2017-10-09T23:48:14.997Z,95.30
2017-10-09T23:50:42.604Z,95.40
2017-10-09T23:53:10.216Z,95.30
2017-10-09T23:55:37.812Z,95.30
2017-10-09T23:58:06.248Z,95.40
